Terminal Aerodrome Forecast
Issued by NWS

Home | Current Version | Previous Version | Text Only | Print | Product List | Glossary On
Versions: 1 2 3 4 5 6 7 8 9 10 11 12 13 14 15 16 17 18 19 20 21 22 23
433
FTUS42 KFFC 272019 AAB
TAFFTY
TAF AMD
KFTY 272019Z 2720/2818 18012G17KT P6SM VCSH SCT025 BKN035
     FM280000 26005KT P6SM SCT250
     FM281000 19003KT 6SM BR BKN009
     FM281500 17008KT P6SM BKN010=

USA.gov is the U.S. government's official web portal to all federal, state and local government web resources and services.